createdAt,value
2017-12-22T00:01:22.284Z,24.20
2017-12-22T00:03:49.916Z,18.27
2017-12-22T00:06:17.465Z,25.87
2017-12-22T00:08:45.021Z,21.93
2017-12-22T00:11:13.334Z,20.63
2017-12-22T00:13:41.731Z,19.83
2017-12-22T00:16:10.035Z,22.27
2017-12-22T00:18:38.338Z,21.13
2017-12-22T00:21:05.903Z,19.47
2017-12-22T00:23:33.434Z,19.27
2017-12-22T00:26:00.943Z,18.73
2017-12-22T00:28:28.524Z,17.77
2017-12-22T00:30:56.105Z,15.30
2017-12-22T00:33:23.697Z,18.00
2017-12-22T00:35:51.330Z,23.87
2017-12-22T00:38:18.876Z,19.47
2017-12-22T00:40:46.387Z,19.87
2017-12-22T00:43:13.908Z,15.97
2017-12-22T00:45:53.146Z,16.13
2017-12-22T00:48:20.706Z,20.47
2017-12-22T00:50:48.242Z,17.30
2017-12-22T00:53:16.187Z,18.70
2017-12-22T00:55:43.697Z,15.73
2017-12-22T00:58:11.245Z,18.60
2017-12-22T01:00:38.764Z,18.80
2017-12-22T01:03:06.275Z,14.00
2017-12-22T01:05:33.822Z,14.77
2017-12-22T01:08:02.110Z,13.40
2017-12-22T01:10:29.623Z,17.63
2017-12-22T01:12:57.929Z,17.70
2017-12-22T01:15:31.767Z,14.03
2017-12-22T01:18:05.620Z,16.20
2017-12-22T01:20:33.219Z,15.80
2017-12-22T01:23:00.734Z,16.80
2017-12-22T01:25:28.308Z,14.53
2017-12-22T01:27:55.842Z,15.07
2017-12-22T01:30:23.461Z,17.57
2017-12-22T01:32:51.782Z,13.77
2017-12-22T01:35:20.076Z,13.53
2017-12-22T01:37:48.378Z,14.70
2017-12-22T01:40:16.682Z,14.23
2017-12-22T01:42:44.217Z,13.03
2017-12-22T01:45:11.746Z,18.03
2017-12-22T01:47:39.277Z,16.60
2017-12-22T01:50:06.829Z,15.40
2017-12-22T01:52:35.133Z,15.33
2017-12-22T01:55:02.649Z,16.70
2017-12-22T01:57:30.262Z,17.20
2017-12-22T01:59:57.783Z,17.20
2017-12-22T02:02:25.327Z,14.30
2017-12-22T02:04:52.857Z,16.07
2017-12-22T02:07:20.374Z,14.13
2017-12-22T02:09:47.943Z,16.47
2017-12-22T02:12:15.502Z,15.93
2017-12-22T02:14:43.045Z,17.03
2017-12-22T02:17:10.608Z,19.23
2017-12-22T02:19:38.115Z,17.90
2017-12-22T02:22:06.395Z,16.87
2017-12-22T02:24:33.940Z,16.57
2017-12-22T02:27:01.492Z,18.40
2017-12-22T02:29:29.006Z,21.13
2017-12-22T02:31:57.326Z,17.80
2017-12-22T02:34:24.866Z,18.10
2017-12-22T02:36:52.421Z,17.93
2017-12-22T02:39:20.012Z,18.73
2017-12-22T02:41:47.510Z,20.40
2017-12-22T02:44:15.305Z,19.90
2017-12-22T02:46:42.867Z,21.47
2017-12-22T02:49:10.395Z,19.70
2017-12-22T02:51:37.920Z,17.90
2017-12-22T02:54:06.336Z,20.07
2017-12-22T02:56:34.623Z,20.23
2017-12-22T02:59:02.145Z,19.13
2017-12-22T03:01:29.691Z,17.60
2017-12-22T03:03:57.224Z,18.03
2017-12-22T03:06:25.512Z,20.87
2017-12-22T03:08:53.845Z,19.03
2017-12-22T03:11:21.378Z,16.77
2017-12-22T03:13:48.889Z,16.50
2017-12-22T03:16:16.449Z,19.50
2017-12-22T03:18:44.001Z,21.90
2017-12-22T03:21:12.307Z,18.97
2017-12-22T03:23:39.868Z,19.47
2017-12-22T03:26:07.374Z,22.90
2017-12-22T03:28:34.946Z,21.23
2017-12-22T03:31:02.450Z,21.20
2017-12-22T03:33:37.509Z,22.60
2017-12-22T03:36:05.032Z,19.63
2017-12-22T03:38:32.559Z,20.37
2017-12-22T03:41:00.275Z,20.53
2017-12-22T03:43:27.816Z,18.53
2017-12-22T03:45:55.344Z,22.97
2017-12-22T03:48:22.905Z,22.40
2017-12-22T03:50:51.314Z,21.50
2017-12-22T03:53:18.861Z,21.23
2017-12-22T03:55:46.375Z,20.53
2017-12-22T03:58:13.896Z,21.23
2017-12-22T04:00:41.472Z,23.20
2017-12-22T04:03:09.137Z,22.80
2017-12-22T04:05:36.665Z,18.83
2017-12-22T04:08:04.220Z,27.37
2017-12-22T04:10:31.734Z,22.50
2017-12-22T04:12:59.276Z,20.73
2017-12-22T04:15:27.590Z,22.93
2017-12-22T04:17:55.119Z,25.87
2017-12-22T04:20:22.664Z,23.60
2017-12-22T04:22:50.216Z,25.40
2017-12-22T04:25:17.801Z,25.37
2017-12-22T04:27:45.413Z,24.90
2017-12-22T04:30:12.981Z,27.07
2017-12-22T04:32:41.315Z,26.27
2017-12-22T04:35:08.856Z,23.37
2017-12-22T04:37:36.424Z,27.10
2017-12-22T04:40:04.012Z,26.40
2017-12-22T04:42:32.302Z,24.27
2017-12-22T04:45:00.615Z,26.23
2017-12-22T04:47:28.128Z,21.17
2017-12-22T04:49:55.675Z,24.50
2017-12-22T04:52:23.272Z,24.83
2017-12-22T04:54:50.924Z,25.00
2017-12-22T04:57:19.300Z,25.70
2017-12-22T04:59:47.597Z,20.40
2017-12-22T05:02:15.192Z,24.40
2017-12-22T05:04:42.749Z,21.97
2017-12-22T05:07:10.337Z,21.47
2017-12-22T05:09:37.912Z,20.93
2017-12-22T05:12:05.448Z,21.37
2017-12-22T05:14:33.010Z,19.27
2017-12-22T05:17:00.530Z,21.43
2017-12-22T05:19:28.102Z,20.17
2017-12-22T05:21:55.717Z,18.70
2017-12-22T05:24:24.010Z,14.60
2017-12-22T05:26:51.606Z,17.40
2017-12-22T05:29:19.111Z,21.53
2017-12-22T05:31:47.426Z,17.30
2017-12-22T05:34:15.844Z,17.03
2017-12-22T05:36:44.136Z,21.80
2017-12-22T05:39:12.451Z,16.97
2017-12-22T05:41:39.984Z,16.83
2017-12-22T05:44:07.534Z,16.63
2017-12-22T05:46:35.163Z,13.80
2017-12-22T05:49:02.719Z,13.27
2017-12-22T05:56:47.527Z,18.83
2017-12-22T05:59:15.040Z,19.40
2017-12-22T06:01:49.102Z,17.10
2017-12-22T06:04:17.440Z,17.70
2017-12-22T06:09:18.427Z,17.67
2017-12-22T06:11:45.965Z,14.50
2017-12-22T06:14:14.307Z,14.60
2017-12-22T06:16:41.844Z,19.13
2017-12-22T06:19:09.387Z,16.37
2017-12-22T06:21:36.958Z,20.00
2017-12-22T06:24:04.880Z,16.77
2017-12-22T06:26:32.442Z,15.10
2017-12-22T06:28:59.976Z,19.90
2017-12-22T06:31:27.507Z,20.37
2017-12-22T06:33:55.840Z,19.13
2017-12-22T06:36:23.460Z,17.67
2017-12-22T06:38:51.082Z,17.87
2017-12-22T06:41:19.437Z,19.23
2017-12-22T06:43:46.952Z,15.50
2017-12-22T06:46:14.505Z,18.07
2017-12-22T06:48:42.039Z,17.20
2017-12-22T06:51:09.582Z,16.07
2017-12-22T06:53:37.129Z,17.47
2017-12-22T06:56:04.672Z,20.67
2017-12-22T06:58:32.282Z,18.00
2017-12-22T07:00:59.834Z,21.00
2017-12-22T07:03:27.360Z,17.23
2017-12-22T07:05:54.981Z,17.00
2017-12-22T07:08:22.541Z,17.60
2017-12-22T07:10:50.095Z,18.13
2017-12-22T07:13:17.646Z,16.70
2017-12-22T07:15:45.167Z,20.20
2017-12-22T07:18:12.720Z,15.67
2017-12-22T07:20:41.016Z,14.57
2017-12-22T07:23:08.575Z,15.33
2017-12-22T07:25:36.297Z,16.23
2017-12-22T07:28:03.932Z,14.53
2017-12-22T07:30:32.341Z,17.90
2017-12-22T07:32:59.970Z,16.27
2017-12-22T07:35:27.535Z,15.60
2017-12-22T07:37:55.083Z,12.10
2017-12-22T07:40:23.367Z,12.87
2017-12-22T07:42:50.907Z,12.57
2017-12-22T07:45:18.417Z,17.93
2017-12-22T07:47:46.903Z,12.57
2017-12-22T07:50:14.448Z,13.70
2017-12-22T07:52:42.013Z,13.63
2017-12-22T07:55:09.533Z,12.53
2017-12-22T07:57:37.062Z,12.47
2017-12-22T08:00:04.643Z,13.37
2017-12-22T08:02:32.195Z,13.47
2017-12-22T08:04:59.818Z,13.53
2017-12-22T08:07:28.129Z,15.63
2017-12-22T08:09:55.680Z,13.00
2017-12-22T08:12:23.215Z,14.47
2017-12-22T08:14:50.796Z,11.63
2017-12-22T08:17:18.360Z,14.27
2017-12-22T08:19:45.950Z,10.53
2017-12-22T08:22:13.639Z,13.33
2017-12-22T08:24:41.961Z,11.93
2017-12-22T08:27:09.596Z,16.23
2017-12-22T08:29:37.123Z,12.70
2017-12-22T08:32:05.430Z,12.13
2017-12-22T08:34:32.968Z,13.70
2017-12-22T08:37:00.505Z,11.97
2017-12-22T08:39:28.798Z,12.73
2017-12-22T08:41:57.103Z,12.20
2017-12-22T08:44:25.376Z,10.13
2017-12-22T08:46:52.980Z,14.10
2017-12-22T08:49:20.556Z,11.20
2017-12-22T08:51:48.125Z,10.50
2017-12-22T08:54:15.627Z,10.93
2017-12-22T08:56:43.171Z,11.83
2017-12-22T08:59:10.722Z,10.80
2017-12-22T09:01:38.306Z,20.90
2017-12-22T09:04:06.633Z,13.00
2017-12-22T09:06:34.320Z,11.20
2017-12-22T09:09:01.934Z,10.93
2017-12-22T09:11:29.498Z,13.43
2017-12-22T09:13:57.028Z,10.63
2017-12-22T09:16:25.321Z,11.63
2017-12-22T09:18:52.826Z,12.60
2017-12-22T09:21:20.370Z,10.10
2017-12-22T09:23:47.908Z,9.70
2017-12-22T09:26:15.528Z,10.43
2017-12-22T09:28:43.157Z,15.40
2017-12-22T09:31:10.722Z,11.50
2017-12-22T09:33:38.246Z,14.53
2017-12-22T09:36:05.770Z,11.10
2017-12-22T09:38:34.130Z,13.67
2017-12-22T09:41:02.096Z,12.10
2017-12-22T09:43:29.699Z,13.07
2017-12-22T09:45:57.314Z,10.90
2017-12-22T09:48:24.895Z,12.30
2017-12-22T09:50:52.614Z,10.93
2017-12-22T09:53:20.165Z,15.00
2017-12-22T09:55:47.735Z,16.47
2017-12-22T09:58:15.304Z,14.50
2017-12-22T10:00:42.972Z,17.17
2017-12-22T10:03:10.502Z,13.27
2017-12-22T10:05:38.795Z,12.90
2017-12-22T10:08:07.242Z,13.50
2017-12-22T10:10:34.770Z,12.17
2017-12-22T10:13:02.364Z,14.27
2017-12-22T10:15:29.953Z,13.10
2017-12-22T10:17:57.468Z,18.37
2017-12-22T10:20:25.026Z,13.17
2017-12-22T10:22:52.646Z,15.90
2017-12-22T10:25:20.170Z,14.00
2017-12-22T10:27:48.474Z,14.53
2017-12-22T10:30:16.936Z,13.37
2017-12-22T10:32:44.538Z,13.47
2017-12-22T10:35:12.073Z,15.07
2017-12-22T10:37:40.479Z,17.10
2017-12-22T10:40:08.033Z,16.77
2017-12-22T10:42:35.612Z,17.03
2017-12-22T10:45:03.206Z,13.40
2017-12-22T10:47:30.943Z,14.70
2017-12-22T10:49:58.482Z,12.10
2017-12-22T10:52:26.046Z,11.60
2017-12-22T10:54:53.590Z,15.23
2017-12-22T10:57:21.976Z,14.87
2017-12-22T10:59:49.812Z,13.00
2017-12-22T11:02:17.356Z,12.87
2017-12-22T11:04:44.923Z,14.10
2017-12-22T11:07:12.447Z,15.17
2017-12-22T11:09:40.149Z,12.70
2017-12-22T11:12:08.455Z,10.37
2017-12-22T11:14:35.991Z,16.40
2017-12-22T11:17:03.612Z,13.13
2017-12-22T11:19:31.233Z,10.87
2017-12-22T11:21:58.759Z,13.43
2017-12-22T11:24:27.268Z,38.07
2017-12-22T11:26:55.577Z,14.00
2017-12-22T11:29:23.950Z,11.83
2017-12-22T11:31:51.489Z,15.90
2017-12-22T11:34:19.064Z,10.43
2017-12-22T11:36:47.406Z,9.27
2017-12-22T11:39:14.938Z,11.30
2017-12-22T11:41:42.511Z,15.00
2017-12-22T11:44:10.052Z,10.10
2017-12-22T11:46:37.688Z,9.70
2017-12-22T11:49:05.965Z,16.93
2017-12-22T11:51:33.495Z,8.67
2017-12-22T11:54:01.036Z,10.33
2017-12-22T11:56:28.597Z,9.33
2017-12-22T11:58:56.268Z,8.77
2017-12-22T12:01:24.567Z,10.80
2017-12-22T12:03:52.187Z,12.07
2017-12-22T12:06:19.724Z,15.30
2017-12-22T12:08:47.337Z,11.33
2017-12-22T12:11:15.682Z,9.10
2017-12-22T12:13:43.225Z,7.53
2017-12-22T12:16:10.790Z,9.77
2017-12-22T12:18:38.324Z,11.93
2017-12-22T12:21:05.874Z,9.43
2017-12-22T12:23:33.446Z,11.10
2017-12-22T12:26:00.972Z,11.43
2017-12-22T12:28:28.506Z,9.77
2017-12-22T12:30:56.178Z,18.17
2017-12-22T12:33:23.719Z,11.80
2017-12-22T12:35:51.329Z,9.80
2017-12-22T12:38:18.867Z,9.53
2017-12-22T12:40:46.420Z,16.47
2017-12-22T12:43:13.936Z,11.27
2017-12-22T12:45:41.509Z,10.10
2017-12-22T12:48:09.126Z,6.57
2017-12-22T12:50:36.669Z,8.30
2017-12-22T12:53:05.148Z,11.10
2017-12-22T12:55:32.666Z,9.43
2017-12-22T12:58:00.386Z,12.57
2017-12-22T13:00:28.699Z,10.33
2017-12-22T13:02:57.022Z,7.47
2017-12-22T13:05:24.548Z,10.10
2017-12-22T13:07:52.096Z,9.43
2017-12-22T13:10:19.621Z,9.50
2017-12-22T13:12:47.133Z,12.23
2017-12-22T13:15:15.567Z,10.17
2017-12-22T13:17:43.114Z,11.20
2017-12-22T13:20:11.460Z,14.70
2017-12-22T13:22:38.997Z,8.50
2017-12-22T13:25:06.504Z,10.27
2017-12-22T13:27:34.318Z,10.73
2017-12-22T13:30:02.613Z,15.03
2017-12-22T13:32:30.950Z,14.10
2017-12-22T13:34:58.477Z,14.70
2017-12-22T13:37:26.034Z,9.93
2017-12-22T13:39:53.549Z,8.00
2017-12-22T13:42:21.152Z,10.53
2017-12-22T13:44:48.700Z,9.00
2017-12-22T13:47:16.395Z,10.70
2017-12-22T13:49:44.197Z,11.33
2017-12-22T13:52:11.719Z,10.13
2017-12-22T13:54:39.252Z,8.23
2017-12-22T13:57:06.907Z,9.83
2017-12-22T13:59:35.375Z,13.27
2017-12-22T14:02:02.940Z,15.87
2017-12-22T14:04:30.558Z,7.50
2017-12-22T14:06:58.089Z,11.03
2017-12-22T14:09:26.638Z,9.80
2017-12-22T14:11:54.204Z,9.13
2017-12-22T14:14:21.771Z,8.03
2017-12-22T14:16:49.439Z,8.57
2017-12-22T14:19:17.028Z,6.33
2017-12-22T14:21:45.326Z,4.90
2017-12-22T14:24:13.653Z,8.00
2017-12-22T14:26:41.333Z,4.70
2017-12-22T14:29:09.638Z,6.93
2017-12-22T14:31:38.003Z,3.27
2017-12-22T14:34:05.545Z,6.00
2017-12-22T14:36:33.877Z,4.37
2017-12-22T14:39:01.483Z,5.23
2017-12-22T14:41:29.110Z,3.70
2017-12-22T14:43:56.792Z,5.13
2017-12-22T14:46:24.397Z,12.43
2017-12-22T14:48:51.945Z,10.03
2017-12-22T14:51:19.602Z,10.70
2017-12-22T14:53:47.315Z,7.20
2017-12-22T14:56:15.609Z,12.10
2017-12-22T14:58:43.967Z,6.50
2017-12-22T15:01:11.563Z,8.37
2017-12-22T15:03:39.109Z,4.80
2017-12-22T15:06:06.671Z,14.73
2017-12-22T15:08:34.259Z,6.00
2017-12-22T15:11:01.833Z,8.33
2017-12-22T15:13:29.357Z,3.90
2017-12-22T15:15:56.958Z,4.87
2017-12-22T15:18:25.246Z,4.97
2017-12-22T15:20:53.623Z,5.00
2017-12-22T15:23:21.228Z,8.40
2017-12-22T15:25:48.855Z,6.97
2017-12-22T15:28:16.399Z,4.50
2017-12-22T15:30:44.871Z,5.20
2017-12-22T15:33:12.429Z,5.87
2017-12-22T15:35:39.992Z,9.50
2017-12-22T15:38:07.683Z,7.70
2017-12-22T15:40:35.241Z,7.23
2017-12-22T15:43:02.833Z,7.50
2017-12-22T15:45:30.367Z,6.00
2017-12-22T15:47:58.128Z,8.53
2017-12-22T15:50:25.672Z,6.97
2017-12-22T15:52:54.042Z,5.97
2017-12-22T15:55:21.571Z,7.03
2017-12-22T15:57:49.132Z,9.40
2017-12-22T16:00:16.688Z,7.30
2017-12-22T16:02:44.221Z,8.47
2017-12-22T16:05:11.748Z,7.97
2017-12-22T16:07:39.279Z,10.00
2017-12-22T16:10:07.741Z,11.20
2017-12-22T16:12:35.278Z,10.80
2017-12-22T16:15:02.825Z,13.10
2017-12-22T16:17:30.365Z,9.57
2017-12-22T16:19:58.759Z,13.47
2017-12-22T16:22:26.365Z,12.83
2017-12-22T16:24:53.983Z,9.20
2017-12-22T16:27:22.251Z,13.63
2017-12-22T16:29:49.812Z,16.33
2017-12-22T16:32:17.569Z,12.60
2017-12-22T16:34:45.140Z,19.93
2017-12-22T16:37:12.677Z,13.47
2017-12-22T16:39:40.195Z,18.93
2017-12-22T16:42:07.770Z,18.17
2017-12-22T16:44:35.321Z,14.93
2017-12-22T16:47:03.610Z,12.33
2017-12-22T16:49:31.193Z,16.50
2017-12-22T16:51:58.777Z,15.70
2017-12-22T16:54:26.378Z,14.83
2017-12-22T16:56:54.191Z,14.07
2017-12-22T16:59:21.933Z,14.37
2017-12-22T17:01:49.465Z,14.40
2017-12-22T17:04:17.821Z,16.63
2017-12-22T17:06:45.357Z,15.67
2017-12-22T17:09:13.662Z,14.83
2017-12-22T17:11:41.297Z,16.17
2017-12-22T17:14:08.874Z,15.43
2017-12-22T17:16:36.424Z,14.20
2017-12-22T17:19:04.073Z,15.43
2017-12-22T17:21:31.665Z,14.50
2017-12-22T17:23:59.196Z,17.20
2017-12-22T17:26:26.714Z,13.17
2017-12-22T17:28:54.329Z,16.33
2017-12-22T17:31:21.902Z,11.60
2017-12-22T17:33:50.389Z,14.53
2017-12-22T17:36:18.727Z,16.03
2017-12-22T17:38:46.284Z,13.73
2017-12-22T17:41:14.051Z,15.97
2017-12-22T17:43:41.568Z,13.13
2017-12-22T17:46:09.158Z,14.87
2017-12-22T17:48:37.472Z,14.50
2017-12-22T17:51:05.003Z,16.53
2017-12-22T17:53:32.551Z,15.60
2017-12-22T17:56:00.264Z,17.40
2017-12-22T17:58:27.851Z,18.77
2017-12-22T18:00:55.374Z,17.67
2017-12-22T18:03:23.043Z,13.83
2017-12-22T18:05:50.599Z,14.30
2017-12-22T18:08:18.119Z,12.87
2017-12-22T18:10:45.731Z,13.70
2017-12-22T18:13:13.250Z,14.03
2017-12-22T18:15:41.539Z,13.70
2017-12-22T18:18:09.078Z,15.57
2017-12-22T18:20:36.598Z,14.70
2017-12-22T18:23:04.155Z,14.00
2017-12-22T18:25:31.740Z,18.07
2017-12-22T18:27:59.325Z,19.40
2017-12-22T18:30:26.908Z,18.93
2017-12-22T18:32:54.565Z,19.17
2017-12-22T18:35:22.144Z,17.97
2017-12-22T18:37:49.684Z,21.10
2017-12-22T18:40:17.245Z,19.73
2017-12-22T18:42:45.535Z,18.97
2017-12-22T18:45:13.862Z,23.10
2017-12-22T18:47:41.402Z,24.90
2017-12-22T18:50:08.950Z,20.57
2017-12-22T18:52:36.526Z,25.90
2017-12-22T18:55:04.115Z,22.17
2017-12-22T18:57:31.692Z,23.63
2017-12-22T18:59:59.221Z,24.60
2017-12-22T19:02:26.811Z,24.00
2017-12-22T19:04:54.361Z,28.93
2017-12-22T19:07:21.916Z,24.17
2017-12-22T19:09:49.548Z,26.77
2017-12-22T19:12:17.144Z,24.20
2017-12-22T19:14:44.669Z,25.30
2017-12-22T19:17:12.366Z,27.33
2017-12-22T19:19:39.973Z,26.10
2017-12-22T19:22:07.619Z,34.03
2017-12-22T19:24:35.177Z,29.70
2017-12-22T19:27:03.536Z,24.60
2017-12-22T19:29:31.159Z,30.30
2017-12-22T19:31:58.691Z,25.77
2017-12-22T19:34:26.259Z,21.70
2017-12-22T19:36:53.832Z,28.90
2017-12-22T19:39:21.571Z,25.30
2017-12-22T19:41:49.133Z,23.97
2017-12-22T19:44:17.588Z,24.20
2017-12-22T19:46:45.123Z,24.30
2017-12-22T19:49:12.834Z,23.93
2017-12-22T19:51:40.335Z,21.90
2017-12-22T19:54:08.619Z,20.83
2017-12-22T19:56:36.200Z,20.37
2017-12-22T19:59:03.713Z,22.23
2017-12-22T20:01:31.259Z,26.23
2017-12-22T20:03:58.840Z,21.90
2017-12-22T20:06:26.572Z,20.60
2017-12-22T20:08:54.094Z,25.73
2017-12-22T20:11:22.473Z,24.63
2017-12-22T20:13:50.033Z,21.43
2017-12-22T20:16:17.582Z,21.43
2017-12-22T20:18:45.158Z,22.17
2017-12-22T20:21:12.684Z,20.73
2017-12-22T20:23:40.342Z,21.03
2017-12-22T20:26:07.886Z,17.73
2017-12-22T20:28:35.519Z,23.43
2017-12-22T20:31:03.037Z,24.63
2017-12-22T20:33:31.386Z,21.37
2017-12-22T20:35:58.920Z,26.77
2017-12-22T20:38:26.424Z,23.40
2017-12-22T20:40:54.885Z,20.30
2017-12-22T20:43:22.456Z,22.00
2017-12-22T20:45:49.983Z,21.63
2017-12-22T20:48:17.571Z,21.90
2017-12-22T20:50:45.175Z,25.03
2017-12-22T20:53:12.740Z,23.00
2017-12-22T20:55:40.377Z,22.13
2017-12-22T20:58:07.931Z,23.70
2017-12-22T21:00:35.461Z,23.47
2017-12-22T21:03:03.823Z,24.37
2017-12-22T21:05:31.367Z,23.60
2017-12-22T21:07:59.038Z,20.83
2017-12-22T21:10:26.710Z,22.73
2017-12-22T21:12:54.269Z,22.53
2017-12-22T21:15:22.594Z,24.97
2017-12-22T21:17:50.138Z,20.83
2017-12-22T21:20:17.691Z,22.33
2017-12-22T21:22:45.215Z,24.83
2017-12-22T21:25:13.658Z,25.07
2017-12-22T21:27:41.195Z,22.33
2017-12-22T21:30:08.740Z,22.77
2017-12-22T21:32:36.278Z,21.63
2017-12-22T21:35:03.872Z,20.93
2017-12-22T21:37:32.202Z,20.47
2017-12-22T21:39:59.827Z,24.90
2017-12-22T21:42:27.408Z,24.50
2017-12-22T21:44:54.972Z,27.73
2017-12-22T21:47:22.582Z,27.50
2017-12-22T21:49:50.184Z,24.63
2017-12-22T21:52:18.525Z,20.90
2017-12-22T21:54:46.024Z,27.40
2017-12-22T21:57:13.597Z,21.40
2017-12-22T21:59:41.323Z,23.17
2017-12-22T22:02:09.668Z,22.77
2017-12-22T22:04:37.978Z,23.57
2017-12-22T22:07:05.634Z,23.07
2017-12-22T22:09:33.187Z,22.57
2017-12-22T22:12:00.705Z,21.00
2017-12-22T22:14:28.341Z,20.63
2017-12-22T22:16:55.861Z,23.57
2017-12-22T22:19:23.400Z,23.07
2017-12-22T22:21:50.929Z,23.50
2017-12-22T22:24:18.462Z,23.40
2017-12-22T22:26:46.021Z,25.60
2017-12-22T22:29:13.557Z,21.40
2017-12-22T22:31:41.959Z,22.73
2017-12-22T22:34:09.545Z,22.27
2017-12-22T22:36:37.199Z,25.63
2017-12-22T22:39:04.730Z,25.13
2017-12-22T22:41:33.065Z,31.57
2017-12-22T22:44:00.612Z,24.10
2017-12-22T22:46:28.953Z,23.00
2017-12-22T22:48:56.500Z,26.00
2017-12-22T22:51:25.721Z,22.83
2017-12-22T22:53:53.601Z,27.63
2017-12-22T22:56:21.135Z,26.87
2017-12-22T22:58:48.717Z,22.93
2017-12-22T23:01:16.328Z,26.90
2017-12-22T23:03:44.630Z,25.63
2017-12-22T23:06:12.194Z,28.37
2017-12-22T23:08:39.744Z,24.73
2017-12-22T23:11:07.277Z,24.93
2017-12-22T23:13:34.839Z,20.90
2017-12-22T23:16:02.383Z,22.83
2017-12-22T23:18:30.695Z,25.37
2017-12-22T23:20:58.246Z,33.10
2017-12-22T23:23:25.780Z,22.63
2017-12-22T23:25:53.409Z,25.83
2017-12-22T23:28:20.945Z,24.30
2017-12-22T23:30:48.565Z,21.47
2017-12-22T23:33:16.152Z,19.20
2017-12-22T23:35:43.661Z,20.67
2017-12-22T23:38:11.221Z,21.30
2017-12-22T23:40:38.774Z,21.30
2017-12-22T23:43:06.519Z,19.17
2017-12-22T23:45:34.169Z,19.67
2017-12-22T23:48:02.547Z,23.63
2017-12-22T23:50:30.132Z,19.37
2017-12-22T23:52:57.648Z,20.23
2017-12-22T23:55:25.194Z,27.70
2017-12-22T23:57:52.856Z,23.50
